»·PEaware :: N6750H KRKS-KCOS

N6750H :: KRKS-KCOS

FLIGHT INFORMATION

Flight Status: Arrived
Operator: Privately registered:
United States
More flights under this callsign
Pilot: Yoel G. (22311)
Aircraft: Diamond DA-62
(DA62)
More flights by this aircraft type
Origin: KRKS Rock Springs-Sweetwater
United States
Destination: KCOS City Of Colorado Springs Mun
United States
More flights between these airports :: More routes between these airports
Route: +EKR V108 MURFE BRK
File this flight plan on PilotEdge
Remarks:
Altitude:
(Current/Filed)
190ft
Speed:
(Current/Filed)
200kts
Departed: 07-Jun-19 08:57 AM
Arrived: 07-Jun-19 10:26 AM
Distance/Time
Traveled:
260nm/1:29
Distance/Time
To Go:
Arrived

Flight Plot

Page will automatically refresh every two minutes.

Flight plan parsing failed; only flown route is shown


Map Options




Map Legend


Flown Route
Filed Route
Departure Airport
Arrival Airport
Navaid (VOR, NDB)
Fix

Horizontal Profiles

Position Reports

Time Latitude Longitude Heading Altitude Ground
Speed
07-Jun-19 08:48 41.598566 -109.064351 315 6739ft 0kts
07-Jun-19 08:49 41.598566 -109.064351 315 6739ft 0kts
07-Jun-19 08:50 41.598566 -109.064351 315 6739ft 0kts
07-Jun-19 08:51 41.598566 -109.064351 315 6739ft 0kts
07-Jun-19 08:52 41.598566 -109.064351 315 6739ft 0kts
07-Jun-19 08:53 41.598794 -109.065083 259 6738ft 9kts
07-Jun-19 08:54 41.595975 -109.067784 188 6740ft 0kts
07-Jun-19 08:55 41.595820 -109.067834 202 6740ft 5kts
07-Jun-19 08:56 41.589967 -109.042893 105 7004ft 124kts
07-Jun-19 08:57 41.568034 -109.003594 163 8025ft 136kts
07-Jun-19 08:58 41.538596 -108.970934 134 9205ft 142kts
07-Jun-19 08:59 41.513904 -108.929866 135 10371ft 142kts
07-Jun-19 09:00 41.489456 -108.888846 137 11549ft 140kts
07-Jun-19 09:01 41.466758 -108.850855 137 12615ft 140kts
07-Jun-19 09:02 41.442370 -108.810033 138 13702ft 142kts
07-Jun-19 09:03 41.417598 -108.768626 138 14774ft 143kts
07-Jun-19 09:04 41.389296 -108.733050 149 15807ft 140kts
07-Jun-19 09:05 41.359424 -108.699321 149 16755ft 142kts
07-Jun-19 09:06 41.327356 -108.670951 166 17631ft 136kts
07-Jun-19 09:07 41.292687 -108.650335 165 18441ft 137kts
07-Jun-19 09:08 41.257463 -108.629194 165 19062ft 147kts
07-Jun-19 09:09 41.215868 -108.604217 163 19068ft 175kts
07-Jun-19 09:10 41.170341 -108.576712 163 19059ft 183kts
07-Jun-19 09:11 41.123453 -108.548481 163 19046ft 186kts
07-Jun-19 09:12 41.076324 -108.520170 163 19045ft 186kts
07-Jun-19 09:13 41.029372 -108.492017 163 19045ft 185kts
07-Jun-19 09:14 40.982555 -108.463993 163 19046ft 184kts
07-Jun-19 09:15 40.935810 -108.436061 163 19052ft 183kts
07-Jun-19 09:16 40.889231 -108.408275 163 19065ft 183kts
07-Jun-19 09:17 40.842553 -108.380474 163 19071ft 184kts
07-Jun-19 09:18 40.795816 -108.352674 163 19072ft 185kts
07-Jun-19 09:19 40.749041 -108.324886 164 19068ft 184kts
07-Jun-19 09:20 40.702420 -108.297244 164 19070ft 183kts
07-Jun-19 09:21 40.655965 -108.269739 164 19071ft 183kts
07-Jun-19 09:22 40.609405 -108.242216 164 19072ft 183kts
07-Jun-19 09:23 40.562985 -108.214816 164 19072ft 183kts
07-Jun-19 09:24 40.516452 -108.187398 164 19071ft 183kts
07-Jun-19 09:25 40.469928 -108.160020 164 19072ft 183kts
07-Jun-19 09:26 40.423308 -108.132625 164 19072ft 183kts
07-Jun-19 09:27 40.376926 -108.105414 164 19072ft 183kts
07-Jun-19 09:28 40.330381 -108.078155 164 19072ft 183kts
07-Jun-19 09:29 40.283939 -108.050988 164 19071ft 183kts
07-Jun-19 09:30 40.237339 -108.023774 164 19071ft 183kts
07-Jun-19 09:31 40.190767 -107.996615 164 19071ft 183kts
07-Jun-19 09:32 40.144180 -107.969495 164 19071ft 183kts
07-Jun-19 09:33 40.097755 -107.942505 164 19071ft 183kts
07-Jun-19 09:34 40.055810 -107.904293 138 19071ft 195kts
07-Jun-19 09:35 40.021667 -107.848544 136 19071ft 196kts
07-Jun-19 09:36 39.987916 -107.792538 136 19071ft 196kts
07-Jun-19 09:37 39.953998 -107.736270 136 19071ft 197kts
07-Jun-19 09:38 39.920110 -107.680149 136 19070ft 197kts
07-Jun-19 09:39 39.886205 -107.624100 136 19073ft 197kts
07-Jun-19 09:40 39.852096 -107.567822 136 19070ft 198kts
07-Jun-19 09:41 39.817746 -107.511225 136 19069ft 199kts
07-Jun-19 09:42 39.783506 -107.454928 136 19089ft 198kts
07-Jun-19 09:43 39.749202 -107.398617 136 19111ft 198kts
07-Jun-19 09:44 39.715040 -107.342652 137 19129ft 198kts
07-Jun-19 09:45 39.680921 -107.286841 137 19149ft 197kts
07-Jun-19 09:46 39.646883 -107.231294 137 19155ft 197kts
07-Jun-19 09:47 39.612687 -107.175574 137 19155ft 197kts
07-Jun-19 09:48 39.578468 -107.119924 137 19155ft 197kts
07-Jun-19 09:49 39.544241 -107.064346 137 19155ft 197kts
07-Jun-19 09:50 39.509871 -107.008667 136 19155ft 197kts
07-Jun-19 09:51 39.475349 -106.952826 136 19160ft 198kts
07-Jun-19 09:52 39.441484 -106.896249 120 19156ft 206kts
07-Jun-19 09:53 39.424761 -106.824238 109 19166ft 209kts
07-Jun-19 09:54 39.409534 -106.751469 109 19184ft 209kts
07-Jun-19 09:55 39.394372 -106.679022 109 19222ft 208kts
07-Jun-19 09:56 39.379240 -106.607015 109 19269ft 208kts
07-Jun-19 09:57 39.364041 -106.534927 109 19315ft 208kts
07-Jun-19 09:58 39.348722 -106.462501 109 19321ft 209kts
07-Jun-19 09:59 39.333258 -106.389644 109 19322ft 210kts
07-Jun-19 10:00 39.317746 -106.316807 109 19318ft 209kts
07-Jun-19 10:01 39.302233 -106.244203 109 19318ft 209kts
07-Jun-19 10:02 39.286752 -106.172006 109 19319ft 209kts
07-Jun-19 10:03 39.271139 -106.099416 109 19319ft 209kts
07-Jun-19 10:04 39.255487 -106.026904 109 19309ft 209kts
07-Jun-19 10:05 39.239840 -105.954642 109 19287ft 210kts
07-Jun-19 10:06 39.225654 -105.889355 109 19263ft 210kts
07-Jun-19 10:07 39.212825 -105.830459 109 19238ft 210kts
07-Jun-19 10:08 39.194414 -105.746222 109 19228ft 209kts
07-Jun-19 10:09 39.178529 -105.673837 109 19228ft 207kts
07-Jun-19 10:11 39.162816 -105.602447 110 19228ft 205kts
07-Jun-19 10:12 39.146946 -105.530659 109 19180ft 209kts
07-Jun-19 10:13 39.130893 -105.458174 109 19152ft 211kts
07-Jun-19 10:14 39.118711 -105.386980 117 19029ft 216kts
07-Jun-19 10:15 39.096155 -105.300828 108 16819ft 259kts
07-Jun-19 10:16 39.076251 -105.212475 108 15532ft 254kts
07-Jun-19 10:17 39.056669 -105.125727 108 14317ft 249kts
07-Jun-19 10:18 39.037695 -105.041545 108 13255ft 240kts
07-Jun-19 10:19 39.019272 -104.960193 108 12258ft 232kts
07-Jun-19 10:20 38.991349 -104.890156 140 11112ft 217kts
07-Jun-19 10:21 38.956618 -104.829096 112 9418ft 216kts
07-Jun-19 10:22 38.936547 -104.761437 112 8926ft 199kts
07-Jun-19 10:23 38.899941 -104.721263 158 8681ft 148kts
07-Jun-19 10:24 38.859367 -104.715510 179 6903ft 133kts
07-Jun-19 10:25 38.830907 -104.715876 179 6320ft 77kts
07-Jun-19 10:26 38.813012 -104.716016 205 6115ft 26kts
07-Jun-19 10:27 38.812590 -104.717281 272 6112ft 0kts
07-Jun-19 10:28 38.811288 -104.719965 214 6104ft 18kts
07-Jun-19 10:29 38.809262 -104.720568 180 6093ft 0kts

Navigation Log

Ident Type
Flight plan parsing failed, navigation log unavailable